createdAt,value
2019-02-04T06:48:51.807Z,25.07
2019-02-04T06:51:26.582Z,27.43
2019-02-04T06:53:55.486Z,26.90
2019-02-04T06:56:24.454Z,23.87
2019-02-04T06:58:53.273Z,22.53
2019-02-04T07:01:22.186Z,22.40
2019-02-04T07:03:54.342Z,24.37
2019-02-04T07:06:24.417Z,23.10
2019-02-04T07:08:54.712Z,22.47
2019-02-04T07:11:26.603Z,21.37
2019-02-04T07:13:55.549Z,23.47
2019-02-04T07:16:25.479Z,21.90
2019-02-04T07:18:55.977Z,21.50
2019-02-04T07:21:25.359Z,21.70
2019-02-04T07:23:57.261Z,24.00
2019-02-04T07:26:26.521Z,25.67
2019-02-04T07:28:55.500Z,25.97
2019-02-04T07:31:24.563Z,26.57
2019-02-04T07:33:54.182Z,24.30
2019-02-04T07:36:23.233Z,20.30
2019-02-04T07:38:52.070Z,21.10
2019-02-04T07:41:20.955Z,20.93
2019-02-04T07:43:49.779Z,23.30
2019-02-04T07:46:18.797Z,23.83
2019-02-04T07:48:48.490Z,19.83
2019-02-04T07:51:17.664Z,27.13
2019-02-04T07:53:46.565Z,27.83
2019-02-04T07:56:15.607Z,19.47
2019-02-04T07:58:44.749Z,19.77
2019-02-04T08:01:13.733Z,18.43
2019-02-04T08:03:42.867Z,20.73
2019-02-04T08:06:12.018Z,23.43
2019-02-04T08:08:41.129Z,15.97
2019-02-04T08:11:10.051Z,22.23
2019-02-04T08:13:38.993Z,19.13
2019-02-04T08:16:07.896Z,18.40
2019-02-04T08:18:36.993Z,19.00
2019-02-04T08:21:10.802Z,17.77
2019-02-04T08:23:41.200Z,21.73
2019-02-04T08:26:12.542Z,21.80
2019-02-04T08:28:42.577Z,16.87
2019-02-04T08:31:12.547Z,18.43
2019-02-04T08:33:42.707Z,19.37
2019-02-04T08:36:12.948Z,18.57
2019-02-04T08:38:42.006Z,19.33
2019-02-04T08:41:11.585Z,18.93
2019-02-04T08:43:40.490Z,18.57
2019-02-04T08:46:09.617Z,15.70
2019-02-04T08:48:38.891Z,17.07
2019-02-04T08:51:07.894Z,17.40
2019-02-04T08:53:36.948Z,17.00
2019-02-04T08:56:05.877Z,18.67
2019-02-04T08:58:34.717Z,18.43
2019-02-04T09:01:03.852Z,17.43
2019-02-04T09:03:32.865Z,16.33
2019-02-04T09:06:01.961Z,17.97
2019-02-04T09:08:31.202Z,13.23
2019-02-04T09:11:00.246Z,13.73
2019-02-04T09:13:32.254Z,14.80
2019-02-04T09:16:01.246Z,15.23
2019-02-04T09:18:44.381Z,15.53
2019-02-04T09:21:05.449Z,13.47
2019-02-04T09:23:34.810Z,14.17
2019-02-04T09:26:04.260Z,13.07
2019-02-04T09:28:35.485Z,12.50
2019-02-04T09:31:13.224Z,17.40
2019-02-04T09:33:42.954Z,12.57
2019-02-04T09:36:12.494Z,13.87
2019-02-04T09:38:41.856Z,13.17
2019-02-04T09:41:11.030Z,16.87
2019-02-04T09:43:43.657Z,14.20
2019-02-04T09:46:13.104Z,14.17
2019-02-04T09:48:45.876Z,14.37
2019-02-04T09:51:23.353Z,19.47
2019-02-04T09:53:52.510Z,15.23
2019-02-04T09:56:21.497Z,12.73
2019-02-04T09:58:53.724Z,12.00
2019-02-04T10:01:22.828Z,12.67
2019-02-04T10:03:51.903Z,14.73
2019-02-04T10:06:23.975Z,15.97
2019-02-04T10:08:53.586Z,19.30
2019-02-04T10:11:23.209Z,17.67
2019-02-04T10:13:52.502Z,26.47
2019-02-04T10:16:21.746Z,12.90
2019-02-04T10:19:03.401Z,12.47
2019-02-04T10:21:32.447Z,13.83
2019-02-04T10:24:16.078Z,16.53
2019-02-04T10:26:47.937Z,13.23
2019-02-04T10:29:21.789Z,15.30
2019-02-04T10:31:50.710Z,13.07
2019-02-04T10:34:19.869Z,17.80
2019-02-04T10:36:48.822Z,18.53
2019-02-04T10:39:17.846Z,17.80
2019-02-04T10:41:46.891Z,23.87
2019-02-04T10:44:16.111Z,23.87
2019-02-04T10:46:45.422Z,16.23
2019-02-04T10:49:14.654Z,14.67
2019-02-04T10:51:46.838Z,29.17
2019-02-04T10:54:21.314Z,19.23
2019-02-04T10:56:50.435Z,22.80
2019-02-04T10:59:20.218Z,20.90
2019-02-04T11:01:52.515Z,20.43
2019-02-04T11:04:21.520Z,23.93
2019-02-04T11:06:52.149Z,14.63
2019-02-04T11:09:23.921Z,21.53
2019-02-04T11:11:53.022Z,15.30
2019-02-04T11:14:22.164Z,25.57
2019-02-04T11:16:51.497Z,15.73
2019-02-04T11:19:20.638Z,13.20
2019-02-04T11:21:49.738Z,12.23
2019-02-04T11:24:18.698Z,11.23
2019-02-04T11:26:47.842Z,11.40
2019-02-04T11:29:22.260Z,13.57
2019-02-04T11:31:51.958Z,14.60
2019-02-04T11:34:21.433Z,13.87
2019-02-04T11:36:50.852Z,12.47
2019-02-04T11:39:19.901Z,12.63
2019-02-04T11:41:49.089Z,12.43
2019-02-04T11:44:20.562Z,10.73
2019-02-04T11:46:49.846Z,10.07
2019-02-04T11:49:20.436Z,11.27
2019-02-04T11:51:49.761Z,10.97
2019-02-04T11:54:19.741Z,10.33
2019-02-04T11:56:49.007Z,12.07
2019-02-04T11:59:17.942Z,10.33
2019-02-04T12:01:53.551Z,14.63
2019-02-04T12:04:22.805Z,12.43
2019-02-04T12:06:51.863Z,12.57
2019-02-04T12:09:21.232Z,11.37
2019-02-04T12:11:50.509Z,12.27
2019-02-04T12:14:20.472Z,11.77
2019-02-04T12:16:49.462Z,24.93
2019-02-04T12:19:18.670Z,26.70
2019-02-04T12:21:47.889Z,13.50
2019-02-04T12:24:18.493Z,12.13
2019-02-04T12:26:47.795Z,11.63
2019-02-04T12:29:19.269Z,10.77
2019-02-04T12:31:48.251Z,12.30
2019-02-04T12:34:18.304Z,11.97
2019-02-04T12:36:48.479Z,11.43
2019-02-04T12:39:22.030Z,11.20
2019-02-04T12:41:54.079Z,15.50
2019-02-04T12:44:25.823Z,13.47
2019-02-04T12:47:01.741Z,11.20
2019-02-04T12:49:33.590Z,13.73
2019-02-04T12:52:02.695Z,13.20
2019-02-04T12:54:31.592Z,13.97
2019-02-04T12:57:00.503Z,10.27
2019-02-04T12:59:31.026Z,11.20
2019-02-04T13:02:00.214Z,10.33
2019-02-04T13:04:29.402Z,10.17
2019-02-04T13:06:58.666Z,11.03
2019-02-04T13:09:30.575Z,11.33
2019-02-04T13:12:02.649Z,13.17
2019-02-04T13:14:31.714Z,11.20
2019-02-04T13:17:01.061Z,11.03
2019-02-04T13:19:30.431Z,10.60
2019-02-04T13:22:07.584Z,10.97
2019-02-04T13:25:01.841Z,10.40
2019-02-04T13:27:21.697Z,10.73
2019-02-04T13:29:55.249Z,11.00
2019-02-04T13:32:24.612Z,10.43
2019-02-04T13:34:55.194Z,10.67
2019-02-04T13:37:24.298Z,12.30
2019-02-04T13:39:53.946Z,10.53
2019-02-04T13:42:23.370Z,11.33
2019-02-04T13:44:53.280Z,11.50
2019-02-04T13:47:25.298Z,10.10
2019-02-04T13:49:54.488Z,9.80
2019-02-04T13:52:23.450Z,9.40
2019-02-04T13:54:52.506Z,10.93
2019-02-04T13:57:24.861Z,14.57
2019-02-04T14:00:00.190Z,12.20
2019-02-04T14:02:29.287Z,12.30
2019-02-04T14:04:58.145Z,17.20
2019-02-04T14:07:27.386Z,11.60
2019-02-04T14:09:59.099Z,9.47
2019-02-04T14:12:27.681Z,11.03
2019-02-04T14:14:56.678Z,9.70
2019-02-04T14:17:26.982Z,10.53
2019-02-04T14:19:58.771Z,10.57
2019-02-04T14:22:27.712Z,9.87
2019-02-04T14:24:56.645Z,11.10
2019-02-04T14:27:25.453Z,11.23
2019-02-04T14:29:55.656Z,9.50
2019-02-04T14:32:24.719Z,8.30
2019-02-04T14:34:54.777Z,12.13
2019-02-04T14:37:24.143Z,10.47
2019-02-04T14:39:53.069Z,11.60
2019-02-04T14:42:28.491Z,15.27
2019-02-04T14:45:22.337Z,11.30
2019-02-04T14:48:04.165Z,12.13
2019-02-04T14:51:10.726Z,11.53
2019-02-04T14:54:19.649Z,11.93
2019-02-04T14:57:16.839Z,11.47
2019-02-04T14:59:52.952Z,8.07
2019-02-04T15:02:47.122Z,15.40
2019-02-04T15:05:36.538Z,11.20
2019-02-04T15:08:38.547Z,11.00
2019-02-04T15:11:32.012Z,16.80
2019-02-04T15:14:54.942Z,13.77
2019-02-04T15:17:35.129Z,9.67
2019-02-04T15:20:30.661Z,13.37
2019-02-04T15:23:26.386Z,11.77
2019-02-04T15:26:44.675Z,9.70
2019-02-04T15:29:24.821Z,12.57
2019-02-04T15:32:29.559Z,8.10
2019-02-04T15:35:51.488Z,9.93
2019-02-04T15:38:43.268Z,9.50
2019-02-04T15:41:40.182Z,14.23
2019-02-04T15:44:47.867Z,11.40
2019-02-04T15:47:25.133Z,11.60
2019-02-04T15:50:34.070Z,15.77
2019-02-04T15:53:03.007Z,9.30
2019-02-04T15:55:32.069Z,16.90
2019-02-04T15:58:01.301Z,27.50
2019-02-04T16:00:30.293Z,15.60
2019-02-04T16:02:59.610Z,10.47
2019-02-04T16:05:29.994Z,11.10
2019-02-04T16:08:12.214Z,11.70
2019-02-04T16:10:49.663Z,12.63
2019-02-04T16:13:21.565Z,14.73
2019-02-04T16:15:52.781Z,11.60
2019-02-04T16:18:21.844Z,11.00
2019-02-04T16:20:50.883Z,11.33
2019-02-04T16:23:20.093Z,19.53
2019-02-04T16:25:55.175Z,11.97
2019-02-04T16:28:24.359Z,13.93
2019-02-04T16:30:53.940Z,14.90
2019-02-04T16:33:22.973Z,21.10
2019-02-04T16:35:52.178Z,11.77
2019-02-04T16:38:21.398Z,12.83
2019-02-04T16:40:50.234Z,8.83
2019-02-04T16:43:23.582Z,9.70
2019-02-04T16:45:52.437Z,14.73
2019-02-04T16:48:21.408Z,11.80
2019-02-04T16:51:03.448Z,11.37
2019-02-04T16:53:25.765Z,8.90
2019-02-04T16:55:51.973Z,10.70
2019-02-04T16:58:21.149Z,14.50
2019-02-04T17:00:50.285Z,12.10
2019-02-04T17:03:22.435Z,13.27
2019-02-04T17:05:54.685Z,9.67
2019-02-04T17:08:23.678Z,14.57
2019-02-04T17:10:52.877Z,7.53
2019-02-04T17:13:21.926Z,12.70
2019-02-04T17:15:56.676Z,8.50
2019-02-04T17:18:28.441Z,8.67
2019-02-04T17:20:57.764Z,7.57
2019-02-04T17:23:27.195Z,12.33
2019-02-04T17:25:59.459Z,9.27
2019-02-04T17:28:36.189Z,11.33
2019-02-04T17:31:05.198Z,14.20
2019-02-04T17:33:34.643Z,10.28
2019-02-04T17:36:05.371Z,12.93
2019-02-04T17:38:36.945Z,11.80
2019-02-04T17:41:11.121Z,11.70
2019-02-04T17:43:41.514Z,11.33
2019-02-04T17:46:21.783Z,19.13
2019-02-04T17:48:53.704Z,14.17
2019-02-04T17:51:22.979Z,11.67
2019-02-04T17:53:52.041Z,8.80
2019-02-04T17:56:21.033Z,14.40
2019-02-04T17:58:50.259Z,14.80
2019-02-04T18:01:19.610Z,13.47
2019-02-04T18:03:50.090Z,13.03
2019-02-04T18:06:19.318Z,15.37
2019-02-04T18:08:49.103Z,12.47
2019-02-04T18:11:18.159Z,13.90
2019-02-04T18:13:50.351Z,12.73
2019-02-04T18:16:19.315Z,11.07
2019-02-04T18:18:51.257Z,12.47
2019-02-04T18:21:20.153Z,13.57
2019-02-04T18:23:49.149Z,11.20
2019-02-04T18:26:20.812Z,13.33
2019-02-04T18:28:50.375Z,12.20
2019-02-04T18:31:19.681Z,10.30
2019-02-04T18:33:48.954Z,11.50
2019-02-04T18:36:21.337Z,11.60
2019-02-04T18:38:51.592Z,11.97
2019-02-04T18:41:21.042Z,11.03
2019-02-04T18:43:49.993Z,10.50
2019-02-04T18:46:19.097Z,9.73
2019-02-04T18:48:48.636Z,9.27
2019-02-04T18:51:18.026Z,11.17
2019-02-04T18:53:57.337Z,12.00
2019-02-04T18:56:18.518Z,10.17
2019-02-04T18:58:49.385Z,12.20
2019-02-04T19:01:18.440Z,12.47
2019-02-04T19:03:47.447Z,14.30
2019-02-04T19:06:17.034Z,12.13
2019-02-04T19:08:46.628Z,12.17
2019-02-04T19:11:15.733Z,12.30
2019-02-04T19:13:46.514Z,13.00
2019-02-04T19:16:16.077Z,13.53
2019-02-04T19:18:45.077Z,14.70
2019-02-04T19:21:14.073Z,21.67
2019-02-04T19:23:43.360Z,37.73
2019-02-04T19:26:12.356Z,33.23
2019-02-04T19:28:41.297Z,31.03
2019-02-04T19:31:15.683Z,17.90
2019-02-04T19:33:46.419Z,15.33
2019-02-04T19:36:18.464Z,15.27
2019-02-04T19:38:46.829Z,19.73
2019-02-04T19:41:16.159Z,18.23
2019-02-04T19:43:45.159Z,15.57
2019-02-04T19:46:14.208Z,15.13
2019-02-04T19:48:43.832Z,14.47
2019-02-04T19:51:14.056Z,13.03
2019-02-04T19:53:43.289Z,14.30
2019-02-04T19:56:14.322Z,16.33
2019-02-04T19:58:43.509Z,16.47
2019-02-04T20:01:12.790Z,14.87
2019-02-04T20:03:41.792Z,14.67
2019-02-04T20:06:10.820Z,16.20
2019-02-04T20:08:39.920Z,16.60
2019-02-04T20:11:09.093Z,23.53
2019-02-04T20:13:38.119Z,18.80
2019-02-04T20:16:10.657Z,14.83
2019-02-04T20:18:39.579Z,12.10
2019-02-04T20:21:09.545Z,12.80
2019-02-04T20:23:40.112Z,11.07
2019-02-04T20:26:09.594Z,11.50
2019-02-04T20:28:39.200Z,17.57
2019-02-04T20:31:08.242Z,20.57
2019-02-04T20:33:40.257Z,17.83
2019-02-04T20:36:12.641Z,19.80
2019-02-04T20:38:42.171Z,18.67
2019-02-04T20:41:24.957Z,19.77
2019-02-04T20:43:55.893Z,17.30
2019-02-04T20:46:25.937Z,17.73
2019-02-04T20:48:58.224Z,22.57
2019-02-04T20:51:27.460Z,20.53
2019-02-04T20:53:57.093Z,19.00
2019-02-04T20:56:27.361Z,17.90
2019-02-04T20:58:56.674Z,18.23
2019-02-04T21:01:26.384Z,17.10
2019-02-04T21:03:55.633Z,19.70
2019-02-04T21:06:25.757Z,47.23
2019-02-04T21:08:55.249Z,29.90
2019-02-04T21:11:24.169Z,22.60
2019-02-04T21:13:53.602Z,18.07
2019-02-04T21:16:23.519Z,15.97
2019-02-04T21:18:54.450Z,15.10
2019-02-04T21:21:23.367Z,15.50
2019-02-04T21:23:52.474Z,14.43
2019-02-04T21:26:21.737Z,14.73
2019-02-04T21:28:50.847Z,11.40
2019-02-04T21:31:20.840Z,10.13
2019-02-04T21:33:49.953Z,9.23
2019-02-04T21:36:20.922Z,8.90
2019-02-04T21:38:51.072Z,8.43
2019-02-04T21:41:22.495Z,6.97
2019-02-04T21:43:51.440Z,8.80
2019-02-04T21:46:23.864Z,10.57
2019-02-04T21:48:52.967Z,8.93
2019-02-04T21:51:23.468Z,10.47
2019-02-04T21:53:56.826Z,12.87
2019-02-04T21:56:23.503Z,10.63
2019-02-04T21:58:54.090Z,10.43
2019-02-04T22:01:23.117Z,9.07
2019-02-04T22:03:52.070Z,8.73
2019-02-04T22:06:20.964Z,7.93
2019-02-04T22:08:51.288Z,9.70
2019-02-04T22:11:21.997Z,9.13
2019-02-04T22:13:51.274Z,7.87
2019-02-04T22:16:21.054Z,8.80
2019-02-04T22:18:51.290Z,9.33
2019-02-04T22:21:20.182Z,8.73
2019-02-04T22:23:49.453Z,7.03
2019-02-04T22:26:19.089Z,9.50
2019-02-04T22:28:48.121Z,9.17
2019-02-04T22:31:19.271Z,7.33
2019-02-04T22:33:49.906Z,10.73
2019-02-04T22:36:18.902Z,9.53
2019-02-04T22:38:49.614Z,12.17
2019-02-04T22:41:18.871Z,11.80
2019-02-04T22:43:48.063Z,11.30
2019-02-04T22:46:18.527Z,9.17
2019-02-04T22:48:47.526Z,9.47
2019-02-04T22:51:16.813Z,8.27
2019-02-04T22:53:46.126Z,9.43
2019-02-04T22:56:17.403Z,9.13
2019-02-04T22:58:46.649Z,11.70
2019-02-04T23:01:40.827Z,10.87
2019-02-04T23:04:10.302Z,11.60
2019-02-04T23:06:40.182Z,12.60
2019-02-04T23:09:09.482Z,12.77
2019-02-04T23:11:38.804Z,12.00
2019-02-04T23:14:07.834Z,11.60
2019-02-04T23:16:36.822Z,12.27
2019-02-04T23:19:11.666Z,12.10
2019-02-04T23:21:38.010Z,11.00
2019-02-04T23:24:07.732Z,13.37
2019-02-04T23:26:36.736Z,11.90
2019-02-04T23:29:07.485Z,13.50
2019-02-04T23:31:36.517Z,12.97
2019-02-04T23:34:06.534Z,12.03
2019-02-04T23:36:36.241Z,12.20
2019-02-04T23:39:08.400Z,13.30
2019-02-04T23:41:37.411Z,13.50
2019-02-04T23:44:06.421Z,12.83
2019-02-04T23:46:38.273Z,14.13
2019-02-04T23:49:07.459Z,11.07
2019-02-04T23:51:37.813Z,11.20
2019-02-04T23:54:06.806Z,12.23
2019-02-04T23:56:37.313Z,11.93
2019-02-04T23:59:06.300Z,11.67
